Currently 55°F in Hemet, California, USA
55°F
67°F / 55°F
calm
0.07"
Friday, November 17, 2017 8:41 PM PST

Hemet, California Weather Summary
Last 36 Hours

Temperature Winds Hourly Humidity Dewpoint
Time Report Norm Report Norm Max Gusts Precip. Rpt. Norm Rpt. Norm Pressure
1Fri 08:41 PM  54.7°F  57°F  calm  1 mph  none  0.00"  73%  46%  46°F  36°F  30.14"
3Fri 08:33 PM  54.5°F  57°F  calm  1 mph  none  ----  73%  46%  46°F  36°F  30.14"
Fri 08:00 PM  55.6°F  58°F  calm  1 mph  none  0.00"  72%  46%  46°F  36°F  30.13"
Fri 07:00 PM  57.6°F  59°F  calm  1 mph  none  0.00"  69%  45%  47°F  37°F  30.11"
Fri 06:00 PM  59.0°F  61°F  calm  1 mph  none  0.00"  65%  43%  47°F  38°F  30.09"
Fri 05:00 PM  62.4°F  65°F  calm  1 mph  none  0.00"  58%  39%  47°F  38°F  30.07"
Fri 04:00 PM  65.1°F  70°F  calm  1 mph  none  0.00"  55%  34%  48°F  39°F  30.07"
Fri 03:00 PM  66.6°F  71°F  calm  1 mph  none  0.00"  52%  32%  48°F  38°F  30.07"
2Fri 02:57 PM  66.6°F  71°F  calm  1 mph  none  ----  53%  31%  48°F  38°F  30.07"
Fri 02:00 PM  64.9°F  72°F  calm  1 mph  none  0.00"  55%  31%  48°F  38°F  30.07"
Fri 01:00 PM  64.9°F  71°F  calm  1 mph  none  0.00"  56%  32%  48°F  38°F  30.08"
Fri 12:00 PM  64.0°F  69°F  calm  1 mph  none  0.00"  59%  34%  49°F  39°F  30.10"
Fri 11:00 AM  64.2°F  67°F  calm  1 mph  none  0.00"  65%  37%  52°F  39°F  30.11"
Fri 10:00 AM  58.8°F  64°F  calm  calm  none  0.01"  84%  42%  54°F  40°F  30.13"
Fri 09:00 AM  57.6°F  62°F  calm  calm  none  0.03"  82%  44%  52°F  39°F  30.13"
Fri 08:00 AM  56.8°F  59°F  calm  calm  none  0.00"  79%  45%  50°F  37°F  30.11"
Fri 07:00 AM  55.4°F  54°F  calm  1 mph  none  0.00"  80%  48%  49°F  33°F  30.08"
Fri 06:00 AM  55.0°F  53°F  calm  1 mph  none  0.03"  79%  48%  48°F  33°F  30.06"
Fri 05:00 AM  58.6°F  54°F  calm  1 mph  none  0.00"  61%  48%  45°F  33°F  30.06"
Fri 04:00 AM  62.1°F  54°F  calm  1 mph  none  0.00"  46%  47%  40°F  33°F  30.05"
Fri 03:00 AM  61.0°F  54°F  calm  1 mph  none  0.00"  48%  47%  40°F  34°F  30.03"
Fri 02:00 AM  59.5°F  55°F  calm  1 mph  none  0.00"  50%  47%  40°F  34°F  30.03"
Fri 01:00 AM  59.5°F  55°F  calm  1 mph  none  0.00"  50%  48%  40°F  35°F  30.03"
Fri 12:00 AM  61.0°F  55°F  calm  1 mph  none  0.00"  49%  47%  41°F  35°F  30.04"
Thu 11:00 PM  61.0°F  56°F  calm  1 mph  none  0.00"  48%  48%  40°F  35°F  30.03"
Thu 10:00 PM  61.9°F  57°F  calm  1 mph  none  0.00"  48%  47%  41°F  36°F  30.04"
Thu 09:00 PM  64.2°F  57°F  calm  1 mph  none  0.00"  45%  46%  42°F  36°F  30.04"
Thu 08:00 PM  65.3°F  58°F  calm  1 mph  none  0.00"  42%  46%  41°F  36°F  30.04"
Thu 07:00 PM  66.9°F  59°F  calm  1 mph  none  0.00"  39%  45%  40°F  37°F  30.03"
Thu 06:00 PM  69.4°F  62°F  calm  1 mph  none  0.00"  34%  43%  39°F  38°F  30.02"
Thu 05:00 PM  69.4°F  65°F  calm  1 mph  none  0.00"  37%  39%  41°F  38°F  29.99"
Thu 04:00 PM  71.8°F  70°F  calm  1 mph  none  0.00"  35%  34%  42°F  39°F  29.98"
Thu 03:00 PM  73.6°F  71°F  calm  1 mph  none  0.00"  31%  32%  40°F  39°F  29.98"
Thu 02:00 PM  75.4°F  72°F  calm  1 mph  none  0.00"  32%  31%  42°F  39°F  29.99"
Thu 01:00 PM  75.4°F  71°F  calm  1 mph  none  0.00"  31%  32%  42°F  38°F  30.00"
Thu 12:00 PM  74.5°F  70°F  calm  1 mph  none  0.00"  31%  34%  41°F  39°F  30.01"
Thu 11:00 AM  71.1°F  67°F  calm  1 mph  none  0.00"  36%  37%  42°F  39°F  30.04"
Thu 10:00 AM  70.3°F  65°F  calm  calm  none  0.00"  42%  41%  45°F  40°F  30.04"
Thu 09:00 AM  69.4°F  62°F  calm  calm  none  0.00"  43%  44%  45°F  39°F  30.04"

  1. Current weather data. No green row appears if the current weather data is also the high or low for the current day.
  2. High temperature for the current day.
  3. Low temperature for the current day.

The Hemet weather pages are a service of WeatherCurrents. Hemet, California is located in the San Jacinto Valley, in western Riverside County, at the foot of the San Jacinto mountains.
Copyright ©Fri Nov 17 20:42:48 PST 2017  WeatherCurrents. All rights reserved. - Submit questions and comments - Privacy Policy

This page automatically refreshes every 10 minutes.